Florence Regional Airport


Codes: KFLO/FLO
Name: Florence Regional Airport
City: Florence
Country: United States
Elevation: 146 ft.
Wikipedia:

Photos at Florence Regional Airport


   Photos courtesy of SpottingLog. You can add your own sightings and photos by signing up for a free trial today.



No photos found.

Weather at Florence Regional Airport


Time (UTC)DescriptionTempratureWindCloud coverageVisibilityPressureHumidity
26-Jun-2024 00:00Scattered Clouds32°C9 mph, S44%10000m1013hPa60%
26-Jun-2024 03:00Broken Clouds27°C4 mph, SE69%10000m1014hPa70%
26-Jun-2024 06:00Scattered Clouds23°C4 mph, S42%10000m1013hPa81%
26-Jun-2024 09:00Clear Sky22°C4 mph, SE0%10000m1013hPa91%
26-Jun-2024 12:00Clear Sky26°C4 mph, SE0%10000m1013hPa78%
26-Jun-2024 15:00Clear Sky33°C7 mph, S0%10000m1012hPa47%
26-Jun-2024 18:00Clear Sky38°C7 mph, S0%10000m1010hPa28%
26-Jun-2024 21:00Scattered Clouds39°C7 mph, S26%10000m1006hPa22%
27-Jun-2024 00:00Light Rain25°C11 mph, S46%10000m1008hPa72%
27-Jun-2024 03:00Broken Clouds25°C9 mph, S61%10000m1009hPa56%
27-Jun-2024 06:00Broken Clouds26°C11 mph, S79%10000m1008hPa75%
27-Jun-2024 09:00Broken Clouds24°C7 mph, SW67%10000m1007hPa86%
27-Jun-2024 12:00Broken Clouds26°C0 mph, N84%10000m1008hPa78%
27-Jun-2024 15:00Overcast Clouds32°C4 mph, SW100%10000m1009hPa48%
27-Jun-2024 18:00Overcast Clouds34°C9 mph, NW100%10000m1009hPa40%
27-Jun-2024 21:00Overcast Clouds32°C7 mph, W100%10000m1007hPa42%
28-Jun-2024 00:00Broken Clouds29°C7 mph, E76%10000m1009hPa62%
28-Jun-2024 03:00Clear Sky24°C4 mph, SE4%10000m1011hPa82%
28-Jun-2024 06:00Clear Sky23°C2 mph, SE2%10000m1011hPa88%
28-Jun-2024 09:00Clear Sky23°C2 mph, NE7%10000m1012hPa92%
28-Jun-2024 12:00Scattered Clouds26°C4 mph, NE41%10000m1014hPa77%
28-Jun-2024 15:00Scattered Clouds33°C7 mph, E42%10000m1014hPa47%
28-Jun-2024 18:00Broken Clouds37°C4 mph, SE72%10000m1013hPa32%
28-Jun-2024 21:00Overcast Clouds34°C9 mph, SE97%10000m1012hPa42%
29-Jun-2024 00:00Light Rain30°C9 mph, SE92%10000m1015hPa58%
29-Jun-2024 03:00Light Rain25°C7 mph, SE54%10000m1017hPa81%
29-Jun-2024 06:00Scattered Clouds24°C4 mph, S31%10000m1017hPa89%
29-Jun-2024 09:00Broken Clouds23°C4 mph, SE53%10000m1017hPa95%
29-Jun-2024 12:00Broken Clouds27°C7 mph, S73%10000m1019hPa81%
29-Jun-2024 15:00Broken Clouds34°C7 mph, S70%10000m1018hPa45%
29-Jun-2024 18:00Broken Clouds38°C7 mph, S69%10000m1017hPa32%
29-Jun-2024 21:00Overcast Clouds35°C16 mph, SE87%10000m1016hPa41%
30-Jun-2024 00:00Overcast Clouds31°C13 mph, SE90%10000m1017hPa56%
30-Jun-2024 03:00Overcast Clouds27°C9 mph, S86%10000m1019hPa71%
30-Jun-2024 06:00Broken Clouds25°C9 mph, S82%10000m1019hPa87%
30-Jun-2024 09:00Overcast Clouds24°C4 mph, S100%10000m1018hPa95%
30-Jun-2024 12:00Overcast Clouds26°C7 mph, SW99%10000m1018hPa83%
30-Jun-2024 15:00Overcast Clouds32°C4 mph, SW99%10000m1018hPa54%
30-Jun-2024 18:00Light Rain29°C11 mph, N100%10000m1017hPa72%
30-Jun-2024 21:00Heavy Intensity Rain25°C4 mph, E100%10000m1017hPa94%